createdAt,value
2022-11-16T00:01:11.659Z,96986.97
2022-11-16T00:03:37.852Z,96983.72
2022-11-16T00:06:05.749Z,96979.91
2022-11-16T00:08:34.464Z,96973.00
2022-11-16T00:11:09.492Z,96966.66
2022-11-16T00:13:36.690Z,96955.25
2022-11-16T00:16:03.500Z,96960.09
2022-11-16T00:18:29.936Z,96962.31
2022-11-16T00:20:56.021Z,96958.97
2022-11-16T00:23:22.370Z,96948.50
2022-11-16T00:25:48.409Z,96946.66
2022-11-16T00:28:14.479Z,96952.78
2022-11-16T00:30:40.202Z,96958.66
2022-11-16T00:33:07.568Z,96952.72
2022-11-16T00:35:39.895Z,96957.13
2022-11-16T00:38:06.199Z,96953.78
2022-11-16T00:40:32.087Z,96963.13
2022-11-16T00:42:57.756Z,96963.25
2022-11-16T00:45:23.704Z,96957.31
2022-11-16T00:47:49.423Z,96960.31
2022-11-16T00:50:15.301Z,96960.44
2022-11-16T00:52:40.973Z,96958.25
2022-11-16T00:55:06.991Z,96956.00
2022-11-16T00:57:32.677Z,96964.66
2022-11-16T00:59:58.744Z,96962.59
2022-11-16T01:02:24.520Z,96951.16
2022-11-16T01:04:50.279Z,96952.19
2022-11-16T01:07:16.082Z,96955.44
2022-11-16T01:09:41.786Z,96944.00
2022-11-16T01:12:09.062Z,96953.94
2022-11-16T01:14:40.310Z,96947.94
2022-11-16T01:17:06.555Z,96956.88
2022-11-16T01:19:32.571Z,96952.94
2022-11-16T01:21:58.722Z,96963.09
2022-11-16T01:24:25.428Z,96964.72
2022-11-16T01:26:51.519Z,96966.56
2022-11-16T01:29:17.235Z,96965.28
2022-11-16T01:31:42.918Z,96964.81
2022-11-16T01:34:08.930Z,96964.72
2022-11-16T01:36:36.027Z,96961.41
2022-11-16T01:39:03.830Z,96957.00
2022-11-16T01:41:29.958Z,96957.13
2022-11-16T01:44:05.338Z,96959.53
2022-11-16T01:46:31.710Z,96952.16
2022-11-16T01:49:08.528Z,96950.66
2022-11-16T01:51:34.534Z,96946.97
2022-11-16T01:54:04.487Z,96937.16
2022-11-16T01:56:32.147Z,96940.38
2022-11-16T01:58:58.018Z,96941.31
2022-11-16T02:01:23.787Z,96940.63
2022-11-16T02:03:49.604Z,96943.28
2022-11-16T02:06:29.803Z,96937.16
2022-11-16T02:09:45.125Z,96938.19
2022-11-16T02:12:40.136Z,96934.25
2022-11-16T02:15:20.597Z,96927.69
2022-11-16T02:18:17.470Z,96928.47
2022-11-16T02:21:03.249Z,96931.13
2022-11-16T02:23:37.748Z,96928.38
2022-11-16T02:26:33.709Z,96928.38
2022-11-16T02:29:29.303Z,96924.00
2022-11-16T02:32:22.866Z,96930.56
2022-11-16T02:35:04.041Z,96918.56
2022-11-16T02:37:35.103Z,96923.75
2022-11-16T02:40:06.067Z,96920.75
2022-11-16T02:42:40.320Z,96916.16
2022-11-16T02:45:09.360Z,96913.72
2022-11-16T02:47:37.256Z,96908.88
2022-11-16T02:50:14.282Z,96920.06
2022-11-16T02:52:39.970Z,96916.59
2022-11-16T02:55:06.510Z,96913.34
2022-11-16T02:57:52.988Z,96912.56
2022-11-16T03:00:25.077Z,96906.66
2022-11-16T03:03:12.304Z,96908.06
2022-11-16T03:05:44.552Z,96913.78
2022-11-16T03:08:31.541Z,96916.69
2022-11-16T03:11:20.211Z,96927.88
2022-11-16T03:13:47.839Z,96935.00
2022-11-16T03:16:40.541Z,96940.91
2022-11-16T03:19:10.437Z,96939.19
2022-11-16T03:21:47.656Z,96937.31
2022-11-16T03:24:14.371Z,96923.72
2022-11-16T03:27:02.501Z,96928.09
2022-11-16T03:29:31.958Z,96936.63
2022-11-16T03:32:18.240Z,96936.75
2022-11-16T03:34:56.071Z,96946.91
2022-11-16T03:37:24.324Z,96948.75
2022-11-16T03:39:52.147Z,96956.47
2022-11-16T03:42:21.626Z,96947.69
2022-11-16T03:44:48.856Z,96953.25
2022-11-16T03:47:14.952Z,96955.44
2022-11-16T03:49:47.413Z,96958.78
2022-11-16T03:52:15.456Z,96958.84
2022-11-16T03:54:41.217Z,96953.28
2022-11-16T03:57:06.914Z,96960.22
2022-11-16T03:59:33.152Z,96955.59
2022-11-16T04:01:58.918Z,96954.66
2022-11-16T04:04:43.231Z,96955.25
2022-11-16T04:07:27.531Z,96952.34
2022-11-16T04:10:12.067Z,96955.00
2022-11-16T04:13:01.266Z,96955.53
2022-11-16T04:15:45.755Z,96954.28
2022-11-16T04:18:30.116Z,96961.94
2022-11-16T04:21:15.177Z,96954.31
2022-11-16T04:24:00.095Z,96966.31
2022-11-16T04:26:44.927Z,96966.88
2022-11-16T04:29:12.516Z,96953.63
2022-11-16T04:31:56.918Z,96951.84
2022-11-16T04:34:41.457Z,96943.88
2022-11-16T04:37:36.344Z,96947.81
2022-11-16T04:40:03.333Z,96948.16
2022-11-16T04:42:29.106Z,96945.09
2022-11-16T04:45:13.152Z,96939.09
2022-11-16T04:47:38.899Z,96942.09
2022-11-16T04:50:05.365Z,96950.88
2022-11-16T04:52:31.193Z,96942.09
2022-11-16T04:54:57.107Z,96940.94
2022-11-16T04:57:23.108Z,96933.00
2022-11-16T04:59:48.790Z,96936.53
2022-11-16T05:02:14.601Z,96938.59
2022-11-16T05:04:42.771Z,96942.50
2022-11-16T05:07:11.420Z,96929.56
2022-11-16T05:09:45.753Z,96929.31
2022-11-16T05:12:17.436Z,96934.00
2022-11-16T05:14:43.613Z,96925.63
2022-11-16T05:17:09.510Z,96924.81
2022-11-16T05:19:53.782Z,96923.25
2022-11-16T05:22:19.571Z,96919.81
2022-11-16T05:24:45.278Z,96918.41
2022-11-16T05:27:13.487Z,96928.13
2022-11-16T05:29:39.738Z,96913.69
2022-11-16T05:32:06.685Z,96922.22
2022-11-16T05:34:33.373Z,96923.84
2022-11-16T05:36:59.423Z,96914.06
2022-11-16T05:39:25.445Z,96919.59
2022-11-16T05:41:52.033Z,96916.25
2022-11-16T05:44:17.802Z,96911.84
2022-11-16T05:46:44.662Z,96915.09
2022-11-16T05:49:11.589Z,96916.56
2022-11-16T05:51:41.831Z,96916.00
2022-11-16T05:54:08.030Z,96914.72
2022-11-16T05:56:34.580Z,96917.75
2022-11-16T05:59:00.607Z,96913.59
2022-11-16T06:01:26.360Z,96917.69
2022-11-16T06:03:52.599Z,96911.41
2022-11-16T06:06:19.565Z,96908.03
2022-11-16T06:08:45.612Z,96913.34
2022-11-16T06:11:12.140Z,96912.31
2022-11-16T06:13:38.340Z,96911.28
2022-11-16T06:16:04.414Z,96909.22
2022-11-16T06:18:30.918Z,96908.16
2022-11-16T06:20:56.783Z,96904.34
2022-11-16T06:23:22.520Z,96909.78
2022-11-16T06:25:54.680Z,96905.75
2022-11-16T06:28:21.192Z,96898.84
2022-11-16T06:30:47.633Z,96900.00
2022-11-16T06:33:13.565Z,96908.53
2022-11-16T06:35:39.262Z,96905.59
2022-11-16T06:38:04.988Z,96898.56
2022-11-16T06:40:31.953Z,96898.69
2022-11-16T06:42:58.079Z,96900.66
2022-11-16T06:45:24.806Z,96907.81
2022-11-16T06:47:50.617Z,96906.94
2022-11-16T06:50:18.521Z,96902.56
2022-11-16T06:52:48.769Z,96902.56
2022-11-16T06:55:15.904Z,96904.53
2022-11-16T06:57:41.777Z,96902.66
2022-11-16T07:00:09.708Z,96907.63
2022-11-16T07:02:37.312Z,96908.78
2022-11-16T07:05:03.967Z,96903.31
2022-11-16T07:07:30.090Z,96908.63
2022-11-16T07:09:55.816Z,96915.69
2022-11-16T07:12:21.521Z,96915.47
2022-11-16T07:14:47.327Z,96918.56
2022-11-16T07:17:13.102Z,96920.75
2022-11-16T07:19:39.345Z,96916.50
2022-11-16T07:22:05.827Z,96916.72
2022-11-16T07:24:32.071Z,96917.06
2022-11-16T07:26:57.824Z,96931.16
2022-11-16T07:29:23.848Z,96934.50
2022-11-16T07:31:49.839Z,96934.41
2022-11-16T07:34:15.666Z,96950.69
2022-11-16T07:36:41.412Z,96960.38
2022-11-16T07:39:08.646Z,96977.59
2022-11-16T07:41:34.691Z,96976.53
2022-11-16T07:44:00.642Z,96978.75
2022-11-16T07:49:13.979Z,96978.16
2022-11-16T07:51:40.159Z,96975.50
2022-11-16T07:54:05.875Z,96974.81
2022-11-16T07:56:31.718Z,96978.09
2022-11-16T07:58:58.457Z,96976.00
2022-11-16T08:01:24.489Z,96973.72
2022-11-16T08:03:52.930Z,96972.56
2022-11-16T08:06:26.580Z,96976.00
2022-11-16T08:08:57.835Z,96966.66
2022-11-16T08:11:24.685Z,96965.03
2022-11-16T08:13:50.426Z,96971.81
2022-11-16T08:16:18.954Z,96969.03
2022-11-16T08:18:44.961Z,96971.94
2022-11-16T08:21:13.139Z,96974.72
2022-11-16T08:23:40.683Z,96976.09
2022-11-16T08:26:08.700Z,96977.81
2022-11-16T08:28:35.897Z,96972.75
2022-11-16T08:31:08.481Z,96980.25
2022-11-16T08:33:34.221Z,96975.28
2022-11-16T08:36:08.144Z,96973.44
2022-11-16T08:38:37.201Z,96979.09
2022-11-16T08:41:03.239Z,96964.34
2022-11-16T08:43:30.297Z,96973.25
2022-11-16T08:45:56.790Z,96968.53
2022-11-16T08:48:22.523Z,96967.81
2022-11-16T08:51:15.953Z,96967.25
2022-11-16T08:53:34.251Z,96967.25
2022-11-16T08:56:08.276Z,96964.13
2022-11-16T08:58:35.939Z,96970.47
2022-11-16T09:01:10.296Z,96965.88
2022-11-16T09:03:38.168Z,96969.94
2022-11-16T09:06:04.435Z,96974.88
2022-11-16T09:08:30.883Z,96976.06
2022-11-16T09:10:56.837Z,96973.75
2022-11-16T09:13:22.568Z,96965.56
2022-11-16T09:15:55.401Z,96969.94
2022-11-16T09:18:21.133Z,96974.66
2022-11-16T09:20:47.050Z,96968.34
2022-11-16T09:23:12.748Z,96975.03
2022-11-16T09:25:38.454Z,96976.75
2022-11-16T09:28:04.370Z,96979.88
2022-11-16T09:30:30.705Z,96984.16
2022-11-16T09:32:58.511Z,96985.09
2022-11-16T09:35:24.356Z,96979.78
2022-11-16T09:37:50.396Z,96980.34
2022-11-16T09:40:16.294Z,96982.88
2022-11-16T09:42:57.753Z,96984.84
2022-11-16T09:45:36.348Z,96987.94
2022-11-16T09:48:11.292Z,97001.84
2022-11-16T09:50:58.739Z,96998.56
2022-11-16T09:53:36.586Z,96990.53
2022-11-16T09:56:06.884Z,96995.16
2022-11-16T09:59:05.971Z,96995.25
2022-11-16T10:01:47.419Z,96991.66
2022-11-16T10:04:16.696Z,96987.06
2022-11-16T10:06:52.639Z,96986.22
2022-11-16T10:09:19.008Z,96986.78
2022-11-16T10:12:16.712Z,96992.66
2022-11-16T10:15:04.189Z,96993.09
2022-11-16T10:17:45.315Z,96994.34
2022-11-16T10:20:17.181Z,96991.78
2022-11-16T10:22:57.678Z,96989.78
2022-11-16T10:25:31.036Z,96987.22
2022-11-16T10:28:09.341Z,96989.94
2022-11-16T10:30:44.456Z,96978.72
2022-11-16T10:33:16.057Z,96988.41
2022-11-16T10:35:53.414Z,96986.03
2022-11-16T10:38:27.673Z,96984.25
2022-11-16T10:41:17.021Z,96994.75
2022-11-16T10:43:44.155Z,96991.22
2022-11-16T10:46:26.148Z,96981.78
2022-11-16T10:49:02.930Z,96974.91
2022-11-16T10:51:31.588Z,96974.53
2022-11-16T10:53:57.280Z,96974.84
2022-11-16T10:56:36.800Z,96974.91
2022-11-16T10:59:09.875Z,96974.19
2022-11-16T11:01:49.947Z,96975.09
2022-11-16T11:04:24.184Z,96967.78
2022-11-16T11:06:55.382Z,96972.63
2022-11-16T11:09:34.779Z,96968.47
2022-11-16T11:12:29.684Z,96973.16
2022-11-16T11:15:10.719Z,96967.63
2022-11-16T11:17:38.548Z,96971.44
2022-11-16T11:20:06.043Z,96966.50
2022-11-16T11:22:34.756Z,96965.50
2022-11-16T11:25:02.805Z,96955.78
2022-11-16T11:27:34.064Z,96961.59
2022-11-16T11:30:00.824Z,96947.78
2022-11-16T11:32:39.334Z,96954.72
2022-11-16T11:35:06.005Z,96942.31
2022-11-16T11:37:35.952Z,96940.09
2022-11-16T11:40:21.897Z,96945.41
2022-11-16T11:43:02.227Z,96938.34
2022-11-16T11:45:53.891Z,96934.25
2022-11-16T11:48:22.769Z,96933.50
2022-11-16T11:50:58.160Z,96936.88
2022-11-16T11:53:57.561Z,96938.44
2022-11-16T11:56:25.585Z,96930.69
2022-11-16T11:58:52.036Z,96932.06
2022-11-16T12:01:49.790Z,96931.50
2022-11-16T12:04:32.716Z,96933.38
2022-11-16T12:07:29.620Z,96933.22
2022-11-16T12:10:16.874Z,96924.72
2022-11-16T12:12:59.592Z,96916.19
2022-11-16T12:15:28.264Z,96908.19
2022-11-16T12:18:50.502Z,96900.44
2022-11-16T12:21:39.941Z,96910.88
2022-11-16T12:24:36.269Z,96903.94
2022-11-16T12:27:48.662Z,96904.81
2022-11-16T12:30:18.367Z,96907.53
2022-11-16T12:33:04.220Z,96902.47
2022-11-16T12:35:38.952Z,96898.22
2022-11-16T12:38:32.270Z,96900.09
2022-11-16T12:41:04.050Z,96896.59
2022-11-16T12:43:55.218Z,96892.56
2022-11-16T12:47:18.077Z,96904.31
2022-11-16T12:49:59.128Z,96899.16
2022-11-16T12:52:50.271Z,96901.63
2022-11-16T12:55:29.264Z,96898.69
2022-11-16T12:58:39.073Z,96900.84
2022-11-16T13:01:04.856Z,96897.63
2022-11-16T13:03:54.742Z,96900.84
2022-11-16T13:06:28.016Z,96901.34
2022-11-16T13:09:07.550Z,96902.38
2022-11-16T13:11:36.684Z,96898.28
2022-11-16T13:14:11.819Z,96891.22
2022-11-16T13:16:37.802Z,96900.84
2022-11-16T13:19:06.613Z,96891.78
2022-11-16T13:21:37.937Z,96891.00
2022-11-16T13:24:18.859Z,96890.25
2022-11-16T13:26:56.166Z,96886.00
2022-11-16T13:29:31.293Z,96884.13
2022-11-16T13:32:16.286Z,96880.94
2022-11-16T13:34:42.833Z,96887.19
2022-11-16T13:37:33.165Z,96867.94
2022-11-16T13:39:58.933Z,96874.16
2022-11-16T13:42:25.784Z,96864.00
2022-11-16T13:44:52.762Z,96868.84
2022-11-16T13:47:29.651Z,96869.66
2022-11-16T13:49:58.912Z,96865.38
2022-11-16T13:53:36.505Z,96872.59
2022-11-16T13:55:37.830Z,96874.22
2022-11-16T13:58:05.661Z,96865.84
2022-11-16T14:00:40.959Z,96862.84
2022-11-16T14:03:15.808Z,96864.97
2022-11-16T14:05:47.011Z,96859.88
2022-11-16T14:08:18.562Z,96855.81
2022-11-16T14:10:44.197Z,96859.56
2022-11-16T14:13:46.486Z,96854.72
2022-11-16T14:16:20.957Z,96848.22
2022-11-16T14:18:51.149Z,96850.88
2022-11-16T14:21:19.963Z,96847.91
2022-11-16T14:23:58.418Z,96843.81
2022-11-16T14:27:04.453Z,96844.59
2022-11-16T14:29:54.996Z,96848.22
2022-11-16T14:32:27.952Z,96849.75
2022-11-16T14:34:56.374Z,96851.84
2022-11-16T14:37:21.965Z,96847.25
2022-11-16T14:39:49.586Z,96844.56
2022-11-16T14:42:19.222Z,96848.00
2022-11-16T14:44:45.931Z,96843.13
2022-11-16T14:47:24.019Z,96842.47
2022-11-16T14:49:50.311Z,96843.47
2022-11-16T14:52:18.293Z,96844.16
2022-11-16T14:55:04.537Z,96843.28
2022-11-16T14:57:30.357Z,96844.75
2022-11-16T15:00:24.083Z,96846.59
2022-11-16T15:02:57.670Z,96831.59
2022-11-16T15:05:31.894Z,96831.53
2022-11-16T15:07:59.399Z,96836.25
2022-11-16T15:10:28.504Z,96832.16
2022-11-16T15:12:56.799Z,96827.28
2022-11-16T15:15:28.812Z,96833.84
2022-11-16T15:18:03.239Z,96839.06
2022-11-16T15:20:33.186Z,96832.22
2022-11-16T15:23:00.830Z,96838.47
2022-11-16T15:25:30.495Z,96844.47
2022-11-16T15:27:58.824Z,96844.88
2022-11-16T15:30:32.242Z,96848.47
2022-11-16T15:32:58.201Z,96845.38
2022-11-16T15:35:30.889Z,96854.03
2022-11-16T15:38:22.735Z,96855.19
2022-11-16T15:40:51.284Z,96852.59
2022-11-16T15:43:18.482Z,96846.63
2022-11-16T15:45:45.158Z,96854.75
2022-11-16T15:48:17.151Z,96844.28
2022-11-16T15:51:06.402Z,96856.38
2022-11-16T15:53:39.514Z,96852.72
2022-11-16T15:56:10.809Z,96849.97
2022-11-16T15:58:38.507Z,96852.06
2022-11-16T16:01:04.777Z,96853.34
2022-11-16T16:03:34.384Z,96855.19
2022-11-16T16:06:01.027Z,96841.09
2022-11-16T16:08:29.389Z,96849.06
2022-11-16T16:11:23.993Z,96845.13
2022-11-16T16:13:59.143Z,96835.06
2022-11-16T16:16:36.692Z,96828.69
2022-11-16T16:19:09.715Z,96834.00
2022-11-16T16:21:54.454Z,96842.78
2022-11-16T16:24:37.440Z,96851.56
2022-11-16T16:27:18.396Z,96845.44
2022-11-16T16:29:45.559Z,96844.31
2022-11-16T16:32:28.878Z,96847.47
2022-11-16T16:35:00.059Z,96843.91
2022-11-16T16:37:28.000Z,96844.03
2022-11-16T16:39:53.757Z,96839.69
2022-11-16T16:42:19.472Z,96836.13
2022-11-16T16:44:46.846Z,96840.53
2022-11-16T16:47:13.614Z,96830.84
2022-11-16T16:49:39.893Z,96833.41
2022-11-16T16:52:07.028Z,96828.22
2022-11-16T16:54:33.306Z,96824.03
2022-11-16T16:57:01.621Z,96819.13
2022-11-16T16:59:29.198Z,96831.50
2022-11-16T17:01:56.024Z,96832.28
2022-11-16T17:04:21.803Z,96839.22
2022-11-16T17:06:50.239Z,96833.66
2022-11-16T17:09:15.974Z,96828.13
2022-11-16T17:11:41.661Z,96826.03
2022-11-16T17:14:07.395Z,96822.81
2022-11-16T17:16:34.231Z,96820.88
2022-11-16T17:19:00.181Z,96823.91
2022-11-16T17:21:26.260Z,96831.16
2022-11-16T17:23:52.167Z,96823.56
2022-11-16T17:26:19.431Z,96819.28
2022-11-16T17:28:45.991Z,96821.97
2022-11-16T17:31:12.761Z,96829.13
2022-11-16T17:33:40.611Z,96817.47
2022-11-16T17:36:09.830Z,96820.72
2022-11-16T17:38:35.635Z,96814.34
2022-11-16T17:41:13.256Z,96808.00
2022-11-16T17:43:40.137Z,96804.19
2022-11-16T17:46:16.923Z,96805.09
2022-11-16T17:48:44.219Z,96795.41
2022-11-16T17:51:11.011Z,96797.72
2022-11-16T17:53:37.385Z,96794.72
2022-11-16T17:56:03.581Z,96796.19
2022-11-16T17:58:30.311Z,96792.16
2022-11-16T18:00:56.556Z,96781.19
2022-11-16T18:03:26.239Z,96786.16
2022-11-16T18:05:52.139Z,96795.00
2022-11-16T18:08:17.815Z,96790.63
2022-11-16T18:10:43.876Z,96795.53
2022-11-16T18:13:09.840Z,96796.22
2022-11-16T18:15:41.973Z,96795.63
2022-11-16T18:18:08.155Z,96793.44
2022-11-16T18:20:36.252Z,96792.06
2022-11-16T18:23:02.348Z,96779.63
2022-11-16T18:25:28.099Z,96778.34
2022-11-16T18:27:54.544Z,96777.69
2022-11-16T18:30:21.489Z,96769.84
2022-11-16T18:32:48.044Z,96773.69
2022-11-16T18:35:14.168Z,96770.34
2022-11-16T18:37:39.952Z,96764.59
2022-11-16T18:40:06.510Z,96768.75
2022-11-16T18:42:32.191Z,96763.38
2022-11-16T18:44:57.876Z,96762.34
2022-11-16T18:47:23.605Z,96759.22
2022-11-16T18:49:49.387Z,96751.97
2022-11-16T18:52:15.066Z,96742.84
2022-11-16T18:54:40.791Z,96742.63
2022-11-16T18:57:06.548Z,96744.47
2022-11-16T18:59:32.235Z,96737.69
2022-11-16T19:01:57.934Z,96739.19
2022-11-16T19:04:24.255Z,96734.56
2022-11-16T19:06:50.095Z,96732.81
2022-11-16T19:09:15.902Z,96743.44
2022-11-16T19:11:41.618Z,96743.78
2022-11-16T19:14:07.424Z,96747.34
2022-11-16T19:16:33.245Z,96749.06
2022-11-16T19:19:00.564Z,96755.06
2022-11-16T19:21:26.664Z,96744.56
2022-11-16T19:23:54.237Z,96740.97
2022-11-16T19:26:20.891Z,96744.31
2022-11-16T19:28:47.920Z,96739.91
2022-11-16T19:31:19.534Z,96736.56
2022-11-16T19:33:45.806Z,96729.41
2022-11-16T19:36:13.906Z,96732.06
2022-11-16T19:38:40.312Z,96737.59
2022-11-16T19:41:07.160Z,96729.63
2022-11-16T19:43:33.741Z,96721.31
2022-11-16T19:46:08.030Z,96726.78
2022-11-16T19:48:34.224Z,96726.78
2022-11-16T19:51:05.117Z,96719.84
2022-11-16T19:53:31.842Z,96726.91
2022-11-16T19:55:57.700Z,96717.00
2022-11-16T19:58:23.395Z,96716.63
2022-11-16T20:00:49.197Z,96718.72
2022-11-16T20:03:14.928Z,96709.03
2022-11-16T20:05:40.673Z,96714.72
2022-11-16T20:08:06.472Z,96717.59
2022-11-16T20:10:32.339Z,96711.72
2022-11-16T20:12:58.276Z,96706.66
2022-11-16T20:15:24.858Z,96714.00
2022-11-16T20:17:53.452Z,96723.47
2022-11-16T20:20:19.230Z,96722.69
2022-11-16T20:22:46.950Z,96719.69
2022-11-16T20:25:12.779Z,96717.72
2022-11-16T20:27:38.478Z,96718.44
2022-11-16T20:30:09.289Z,96717.84
2022-11-16T20:32:35.519Z,96718.09
2022-11-16T20:35:01.221Z,96712.78
2022-11-16T20:37:26.955Z,96719.69
2022-11-16T20:39:56.372Z,96716.47
2022-11-16T20:42:22.777Z,96717.50
2022-11-16T20:44:48.467Z,96727.09
2022-11-16T20:47:14.165Z,96714.41
2022-11-16T20:49:39.947Z,96720.84
2022-11-16T20:52:05.665Z,96717.16
2022-11-16T20:54:31.391Z,96709.78
2022-11-16T20:56:57.076Z,96714.84
2022-11-16T20:59:22.839Z,96708.75
2022-11-16T21:01:51.650Z,96713.69
2022-11-16T21:04:17.382Z,96705.75
2022-11-16T21:06:43.833Z,96708.16
2022-11-16T21:09:14.810Z,96707.47
2022-11-16T21:11:58.789Z,96705.97
2022-11-16T21:14:24.520Z,96699.38
2022-11-16T21:16:50.203Z,96704.44
2022-11-16T21:19:16.225Z,96702.97
2022-11-16T21:21:41.893Z,96714.50
2022-11-16T21:24:08.714Z,96715.28
2022-11-16T21:26:36.302Z,96718.75
2022-11-16T21:29:02.482Z,96717.59
2022-11-16T21:31:30.958Z,96718.41
2022-11-16T21:33:57.347Z,96721.88
2022-11-16T21:36:24.920Z,96722.44
2022-11-16T21:38:51.252Z,96724.53
2022-11-16T21:41:18.645Z,96720.72
2022-11-16T21:43:44.595Z,96720.72
2022-11-16T21:46:12.726Z,96719.69
2022-11-16T21:48:38.953Z,96710.94
2022-11-16T21:51:13.310Z,96698.56
2022-11-16T21:53:39.244Z,96689.38
2022-11-16T21:56:06.771Z,96681.88
2022-11-16T21:58:32.568Z,96681.66
2022-11-16T22:01:00.748Z,96673.03
2022-11-16T22:03:29.215Z,96671.16
2022-11-16T22:06:16.949Z,96675.09
2022-11-16T22:08:43.131Z,96676.81
2022-11-16T22:11:09.324Z,96664.59
2022-11-16T22:13:36.358Z,96668.88
2022-11-16T22:16:06.446Z,96669.31
2022-11-16T22:18:32.517Z,96660.81
2022-11-16T22:20:59.531Z,96664.84
2022-11-16T22:23:25.970Z,96664.84
2022-11-16T22:25:51.891Z,96661.81
2022-11-16T22:28:21.469Z,96668.25
2022-11-16T22:30:51.596Z,96669.75
2022-11-16T22:33:17.834Z,96665.97
2022-11-16T22:35:45.951Z,96659.03
2022-11-16T22:38:11.654Z,96659.50
2022-11-16T22:40:37.434Z,96649.38
2022-11-16T22:43:03.397Z,96646.94
2022-11-16T22:45:29.069Z,96646.34
2022-11-16T22:47:55.823Z,96646.34
2022-11-16T22:50:23.285Z,96646.09
2022-11-16T22:52:48.976Z,96638.84
2022-11-16T22:55:14.890Z,96634.81
2022-11-16T22:57:40.565Z,96645.72
2022-11-16T23:00:09.186Z,96636.16
2022-11-16T23:02:34.911Z,96639.38
2022-11-16T23:05:00.585Z,96629.16
2022-11-16T23:07:26.300Z,96632.53
2022-11-16T23:09:52.036Z,96630.56
2022-11-16T23:12:36.162Z,96630.69
2022-11-16T23:15:20.504Z,96625.03
2022-11-16T23:17:46.183Z,96626.34
2022-11-16T23:20:30.213Z,96627.59
2022-11-16T23:23:14.433Z,96632.44
2022-11-16T23:25:58.749Z,96624.63
2022-11-16T23:28:24.701Z,96625.19
2022-11-16T23:30:50.483Z,96618.84
2022-11-16T23:33:16.294Z,96622.31
2022-11-16T23:35:42.146Z,96613.91
2022-11-16T23:38:08.016Z,96609.97
2022-11-16T23:40:39.119Z,96612.63
2022-11-16T23:43:24.589Z,96609.19
2022-11-16T23:45:50.862Z,96604.22
2022-11-16T23:48:17.799Z,96601.91
2022-11-16T23:50:45.027Z,96598.84
2022-11-16T23:53:11.849Z,96605.84
2022-11-16T23:55:38.868Z,96597.66
2022-11-16T23:58:05.793Z,96595.59
